sensor_id;sensor_type;location;lat;lon;timestamp;temperature;humidity
9450;DHT22;4763;48.370;10.874;2023-06-22T04:34:37;19.00;99.90
9450;DHT22;4763;48.370;10.874;2023-06-22T04:44:37;19.10;99.90
9450;DHT22;4763;48.370;10.874;2023-06-22T04:47:42;19.20;99.90
9450;DHT22;4763;48.370;10.874;2023-06-22T04:54:09;19.30;99.90
9450;DHT22;4763;48.370;10.874;2023-06-22T04:56:39;19.30;99.90
9450;DHT22;4763;48.370;10.874;2023-06-22T04:59:14;19.40;99.90
9450;DHT22;4763;48.370;10.874;2023-06-22T05:01:44;19.40;99.90
9450;DHT22;4763;48.370;10.874;2023-06-22T05:04:17;19.40;99.90
9450;DHT22;4763;48.370;10.874;2023-06-22T05:06:53;19.50;99.90
9450;DHT22;4763;48.370;10.874;2023-06-22T05:09:34;19.40;99.90
9450;DHT22;4763;48.370;10.874;2023-06-22T05:12:36;19.50;99.90
9450;DHT22;4763;48.370;10.874;2023-06-22T05:15:16;19.60;99.90
9450;DHT22;4763;48.370;10.874;2023-06-22T05:18:24;19.70;99.90
9450;DHT22;4763;48.370;10.874;2023-06-22T05:21:12;19.70;99.90
9450;DHT22;4763;48.370;10.874;2023-06-22T05:23:46;19.70;99.90
9450;DHT22;4763;48.370;10.874;2023-06-22T05:26:22;19.90;99.90
9450;DHT22;4763;48.370;10.874;2023-06-22T05:28:55;19.90;99.90
9450;DHT22;4763;48.370;10.874;2023-06-22T06:52:53;23.20;99.90
9450;DHT22;4763;48.370;10.874;2023-06-22T06:55:35;23.50;99.90
9450;DHT22;4763;48.370;10.874;2023-06-22T06:58:06;23.50;99.90
9450;DHT22;4763;48.370;10.874;2023-06-22T07:00:35;23.70;99.90
9450;DHT22;4763;48.370;10.874;2023-06-22T07:03:04;23.70;99.90
9450;DHT22;4763;48.370;10.874;2023-06-22T07:05:33;23.90;99.90
9450;DHT22;4763;48.370;10.874;2023-06-22T07:08:02;24.10;99.90
9450;DHT22;4763;48.370;10.874;2023-06-22T07:10:33;24.20;99.90
9450;DHT22;4763;48.370;10.874;2023-06-22T07:13:02;24.40;99.90
9450;DHT22;4763;48.370;10.874;2023-06-22T07:15:33;24.40;99.90
9450;DHT22;4763;48.370;10.874;2023-06-22T07:18:02;24.50;99.90
9450;DHT22;4763;48.370;10.874;2023-06-22T07:20:32;24.60;99.90
9450;DHT22;4763;48.370;10.874;2023-06-22T07:23:02;24.90;99.90
9450;DHT22;4763;48.370;10.874;2023-06-22T07:25:30;25.10;99.90
9450;DHT22;4763;48.370;10.874;2023-06-22T07:27:59;25.10;99.90
9450;DHT22;4763;48.370;10.874;2023-06-22T07:30:27;25.20;99.90
9450;DHT22;4763;48.370;10.874;2023-06-22T07:32:54;25.40;99.90
9450;DHT22;4763;48.370;10.874;2023-06-22T07:35:21;25.60;99.90
9450;DHT22;4763;48.370;10.874;2023-06-22T07:37:47;25.80;99.90
9450;DHT22;4763;48.370;10.874;2023-06-22T07:40:16;25.90;99.90
9450;DHT22;4763;48.370;10.874;2023-06-22T07:42:44;26.10;99.90
9450;DHT22;4763;48.370;10.874;2023-06-22T07:45:17;26.10;99.90
9450;DHT22;4763;48.370;10.874;2023-06-22T07:47:44;26.20;99.90
9450;DHT22;4763;48.370;10.874;2023-06-22T07:50:11;26.30;99.90
9450;DHT22;4763;48.370;10.874;2023-06-22T08:38:12;28.40;99.90
9450;DHT22;4763;48.370;10.874;2023-06-22T08:40:41;28.70;99.90
9450;DHT22;4763;48.370;10.874;2023-06-22T08:43:07;28.50;99.90
9450;DHT22;4763;48.370;10.874;2023-06-22T08:45:34;28.70;99.90
9450;DHT22;4763;48.370;10.874;2023-06-22T08:48:01;29.00;99.90
9450;DHT22;4763;48.370;10.874;2023-06-22T08:50:28;29.30;99.90
9450;DHT22;4763;48.370;10.874;2023-06-22T08:52:54;29.50;99.90
9450;DHT22;4763;48.370;10.874;2023-06-22T08:55:22;29.60;99.90
9450;DHT22;4763;48.370;10.874;2023-06-22T08:57:49;29.70;99.90
9450;DHT22;4763;48.370;10.874;2023-06-22T09:00:17;29.70;99.90
9450;DHT22;4763;48.370;10.874;2023-06-22T09:02:46;29.80;99.90
9450;DHT22;4763;48.370;10.874;2023-06-22T09:05:13;29.80;99.90
9450;DHT22;4763;48.370;10.874;2023-06-22T09:07:40;29.80;99.90
9450;DHT22;4763;48.370;10.874;2023-06-22T09:10:08;30.00;99.90
9450;DHT22;4763;48.370;10.874;2023-06-22T09:12:36;30.30;99.90
9450;DHT22;4763;48.370;10.874;2023-06-22T09:15:04;30.50;99.90
9450;DHT22;4763;48.370;10.874;2023-06-22T09:17:33;30.70;99.90
9450;DHT22;4763;48.370;10.874;2023-06-22T09:19:59;30.60;99.90
9450;DHT22;4763;48.370;10.874;2023-06-22T09:22:27;30.70;99.90
9450;DHT22;4763;48.370;10.874;2023-06-22T09:24:55;30.50;99.90
9450;DHT22;4763;48.370;10.874;2023-06-22T09:27:29;30.40;99.90
9450;DHT22;4763;48.370;10.874;2023-06-22T09:30:00;30.50;99.90
9450;DHT22;4763;48.370;10.874;2023-06-22T09:32:29;30.70;99.90
9450;DHT22;4763;48.370;10.874;2023-06-22T09:34:55;31.00;99.90
9450;DHT22;4763;48.370;10.874;2023-06-22T09:37:22;31.10;99.90
9450;DHT22;4763;48.370;10.874;2023-06-22T09:39:49;31.40;99.90
9450;DHT22;4763;48.370;10.874;2023-06-22T09:42:15;31.60;99.90
9450;DHT22;4763;48.370;10.874;2023-06-22T09:44:42;31.60;99.90
9450;DHT22;4763;48.370;10.874;2023-06-22T09:47:11;31.60;99.90
9450;DHT22;4763;48.370;10.874;2023-06-22T09:49:37;31.40;99.90
9450;DHT22;4763;48.370;10.874;2023-06-22T09:52:05;31.40;99.90
9450;DHT22;4763;48.370;10.874;2023-06-22T09:54:32;31.50;99.90
9450;DHT22;4763;48.370;10.874;2023-06-22T09:56:59;31.70;99.90
9450;DHT22;4763;48.370;10.874;2023-06-22T09:59:25;31.70;99.90
9450;DHT22;4763;48.370;10.874;2023-06-22T10:01:52;31.70;99.90
9450;DHT22;4763;48.370;10.874;2023-06-22T10:04:20;31.70;99.90
9450;DHT22;4763;48.370;10.874;2023-06-22T10:06:47;32.10;99.90
9450;DHT22;4763;48.370;10.874;2023-06-22T10:09:14;32.30;99.90
9450;DHT22;4763;48.370;10.874;2023-06-22T10:11:40;32.40;99.90
9450;DHT22;4763;48.370;10.874;2023-06-22T10:14:07;32.70;99.90
9450;DHT22;4763;48.370;10.874;2023-06-22T10:16:36;32.90;99.90
9450;DHT22;4763;48.370;10.874;2023-06-22T10:19:03;32.50;99.90
9450;DHT22;4763;48.370;10.874;2023-06-22T10:21:31;31.90;99.90
9450;DHT22;4763;48.370;10.874;2023-06-22T10:23:58;31.40;99.90
9450;DHT22;4763;48.370;10.874;2023-06-22T10:26:31;31.40;99.90
9450;DHT22;4763;48.370;10.874;2023-06-22T10:28:58;31.50;99.90
9450;DHT22;4763;48.370;10.874;2023-06-22T10:31:24;31.60;99.90
9450;DHT22;4763;48.370;10.874;2023-06-22T10:33:52;31.80;99.90
9450;DHT22;4763;48.370;10.874;2023-06-22T10:36:19;31.90;99.90
9450;DHT22;4763;48.370;10.874;2023-06-22T10:38:47;32.20;99.90
9450;DHT22;4763;48.370;10.874;2023-06-22T10:41:14;32.20;99.90
9450;DHT22;4763;48.370;10.874;2023-06-22T10:43:41;32.30;99.90
9450;DHT22;4763;48.370;10.874;2023-06-22T10:46:09;32.50;99.90
9450;DHT22;4763;48.370;10.874;2023-06-22T10:48:36;32.50;99.90
9450;DHT22;4763;48.370;10.874;2023-06-22T10:51:03;32.40;99.90
9450;DHT22;4763;48.370;10.874;2023-06-22T10:53:29;32.20;99.90
9450;DHT22;4763;48.370;10.874;2023-06-22T10:55:57;32.50;99.90
9450;DHT22;4763;48.370;10.874;2023-06-22T10:58:24;32.70;99.90
9450;DHT22;4763;48.370;10.874;2023-06-22T11:00:52;32.40;99.90
9450;DHT22;4763;48.370;10.874;2023-06-22T11:03:18;32.70;99.90
9450;DHT22;4763;48.370;10.874;2023-06-22T11:05:45;33.00;99.90
9450;DHT22;4763;48.370;10.874;2023-06-22T11:08:13;33.40;99.90
9450;DHT22;4763;48.370;10.874;2023-06-22T11:10:40;33.70;99.90
9450;DHT22;4763;48.370;10.874;2023-06-22T11:13:08;33.90;99.90
9450;DHT22;4763;48.370;10.874;2023-06-22T11:15:35;34.30;99.90
9450;DHT22;4763;48.370;10.874;2023-06-22T11:18:02;34.60;99.90
9450;DHT22;4763;48.370;10.874;2023-06-22T11:20:30;34.20;99.90
9450;DHT22;4763;48.370;10.874;2023-06-22T11:22:59;34.10;99.90
9450;DHT22;4763;48.370;10.874;2023-06-22T11:25:26;34.30;99.90
9450;DHT22;4763;48.370;10.874;2023-06-22T11:27:54;33.50;99.90
9450;DHT22;4763;48.370;10.874;2023-06-22T11:30:22;33.50;99.90
9450;DHT22;4763;48.370;10.874;2023-06-22T11:32:49;33.70;99.90
9450;DHT22;4763;48.370;10.874;2023-06-22T11:35:15;33.90;99.90
9450;DHT22;4763;48.370;10.874;2023-06-22T11:37:42;34.40;99.90
9450;DHT22;4763;48.370;10.874;2023-06-22T11:40:10;34.50;99.90
9450;DHT22;4763;48.370;10.874;2023-06-22T11:42:38;34.40;99.90
9450;DHT22;4763;48.370;10.874;2023-06-22T11:45:07;34.60;99.90
9450;DHT22;4763;48.370;10.874;2023-06-22T11:47:36;34.60;99.90
9450;DHT22;4763;48.370;10.874;2023-06-22T11:50:03;34.70;99.90
9450;DHT22;4763;48.370;10.874;2023-06-22T11:52:30;35.20;99.90
9450;DHT22;4763;48.370;10.874;2023-06-22T11:54:57;35.00;99.90
9450;DHT22;4763;48.370;10.874;2023-06-22T11:57:24;35.10;99.90
9450;DHT22;4763;48.370;10.874;2023-06-22T11:59:51;34.90;99.90
9450;DHT22;4763;48.370;10.874;2023-06-22T12:02:18;34.70;99.90
9450;DHT22;4763;48.370;10.874;2023-06-22T12:04:48;34.80;99.90
9450;DHT22;4763;48.370;10.874;2023-06-22T12:07:21;34.60;99.90
9450;DHT22;4763;48.370;10.874;2023-06-22T12:09:47;34.40;99.90
9450;DHT22;4763;48.370;10.874;2023-06-22T12:12:14;34.50;99.90
9450;DHT22;4763;48.370;10.874;2023-06-22T12:14:41;34.90;99.90
9450;DHT22;4763;48.370;10.874;2023-06-22T12:17:08;35.10;99.90
9450;DHT22;4763;48.370;10.874;2023-06-22T12:19:34;35.20;99.90
9450;DHT22;4763;48.370;10.874;2023-06-22T12:22:05;35.10;99.90
9450;DHT22;4763;48.370;10.874;2023-06-22T12:24:31;34.90;99.90
9450;DHT22;4763;48.370;10.874;2023-06-22T12:26:58;35.00;99.90
9450;DHT22;4763;48.370;10.874;2023-06-22T12:29:25;35.10;99.90
9450;DHT22;4763;48.370;10.874;2023-06-22T12:31:52;35.40;99.90
9450;DHT22;4763;48.370;10.874;2023-06-22T12:34:18;35.40;99.90
9450;DHT22;4763;48.370;10.874;2023-06-22T12:36:45;35.50;99.90
9450;DHT22;4763;48.370;10.874;2023-06-22T12:39:14;35.90;98.90
9450;DHT22;4763;48.370;10.874;2023-06-22T12:41:41;35.60;99.40
9450;DHT22;4763;48.370;10.874;2023-06-22T12:44:08;35.90;99.40
9450;DHT22;4763;48.370;10.874;2023-06-22T12:46:35;36.10;99.90
9450;DHT22;4763;48.370;10.874;2023-06-22T12:49:03;36.30;99.20
9450;DHT22;4763;48.370;10.874;2023-06-22T12:51:30;36.20;99.90
9450;DHT22;4763;48.370;10.874;2023-06-22T12:53:57;36.00;99.90
9450;DHT22;4763;48.370;10.874;2023-06-22T12:56:26;36.00;99.20
9450;DHT22;4763;48.370;10.874;2023-06-22T12:58:52;36.10;98.70
9450;DHT22;4763;48.370;10.874;2023-06-22T13:01:19;35.90;99.80
9450;DHT22;4763;48.370;10.874;2023-06-22T13:03:46;35.90;99.90
9450;DHT22;4763;48.370;10.874;2023-06-22T13:06:13;35.90;97.60
9450;DHT22;4763;48.370;10.874;2023-06-22T13:08:40;36.30;99.90
9450;DHT22;4763;48.370;10.874;2023-06-22T13:11:07;35.70;97.40
9450;DHT22;4763;48.370;10.874;2023-06-22T13:13:35;35.80;99.90
9450;DHT22;4763;48.370;10.874;2023-06-22T13:16:02;36.00;99.10
9450;DHT22;4763;48.370;10.874;2023-06-22T13:18:29;36.10;98.20
9450;DHT22;4763;48.370;10.874;2023-06-22T13:20:56;36.10;99.00
9450;DHT22;4763;48.370;10.874;2023-06-22T13:23:23;36.20;99.90
9450;DHT22;4763;48.370;10.874;2023-06-22T13:25:50;36.40;99.10
9450;DHT22;4763;48.370;10.874;2023-06-22T13:28:17;36.00;97.80
9450;DHT22;4763;48.370;10.874;2023-06-22T13:30:45;35.80;98.40
9450;DHT22;4763;48.370;10.874;2023-06-22T13:33:12;35.90;99.20
9450;DHT22;4763;48.370;10.874;2023-06-22T13:35:40;36.20;97.20
9450;DHT22;4763;48.370;10.874;2023-06-22T13:38:08;36.30;98.60
9450;DHT22;4763;48.370;10.874;2023-06-22T13:40:35;36.30;99.10
9450;DHT22;4763;48.370;10.874;2023-06-22T13:43:03;36.50;96.40
9450;DHT22;4763;48.370;10.874;2023-06-22T13:45:30;36.50;96.00
9450;DHT22;4763;48.370;10.874;2023-06-22T13:47:58;36.80;98.30
9450;DHT22;4763;48.370;10.874;2023-06-22T13:50:25;37.00;98.90
9450;DHT22;4763;48.370;10.874;2023-06-22T13:52:52;37.00;95.50
9450;DHT22;4763;48.370;10.874;2023-06-22T13:55:18;36.40;95.40
9450;DHT22;4763;48.370;10.874;2023-06-22T13:57:46;36.00;96.50
9450;DHT22;4763;48.370;10.874;2023-06-22T14:00:13;35.80;96.70
9450;DHT22;4763;48.370;10.874;2023-06-22T14:02:40;35.60;96.30
9450;DHT22;4763;48.370;10.874;2023-06-22T14:05:09;35.70;96.70
9450;DHT22;4763;48.370;10.874;2023-06-22T14:07:36;35.60;97.20
9450;DHT22;4763;48.370;10.874;2023-06-22T14:10:04;35.70;96.70
9450;DHT22;4763;48.370;10.874;2023-06-22T14:12:31;35.90;95.20
9450;DHT22;4763;48.370;10.874;2023-06-22T14:14:58;35.90;96.80
9450;DHT22;4763;48.370;10.874;2023-06-22T14:17:24;35.90;93.60
9450;DHT22;4763;48.370;10.874;2023-06-22T14:19:52;35.90;93.40
9450;DHT22;4763;48.370;10.874;2023-06-22T14:22:20;35.70;92.10
9450;DHT22;4763;48.370;10.874;2023-06-22T14:24:47;35.60;92.60
9450;DHT22;4763;48.370;10.874;2023-06-22T14:27:14;35.40;92.60
9450;DHT22;4763;48.370;10.874;2023-06-22T14:29:41;35.20;92.80
9450;DHT22;4763;48.370;10.874;2023-06-22T14:32:09;35.20;94.10
9450;DHT22;4763;48.370;10.874;2023-06-22T14:34:36;35.40;93.20
9450;DHT22;4763;48.370;10.874;2023-06-22T14:37:05;35.90;93.50
9450;DHT22;4763;48.370;10.874;2023-06-22T14:39:34;36.50;95.10
9450;DHT22;4763;48.370;10.874;2023-06-22T14:42:00;36.60;94.40
9450;DHT22;4763;48.370;10.874;2023-06-22T14:44:29;36.80;92.40
9450;DHT22;4763;48.370;10.874;2023-06-22T14:46:56;36.90;92.80
9450;DHT22;4763;48.370;10.874;2023-06-22T14:49:23;36.90;90.50
9450;DHT22;4763;48.370;10.874;2023-06-22T14:51:50;37.00;91.70
9450;DHT22;4763;48.370;10.874;2023-06-22T14:54:17;37.00;91.10
9450;DHT22;4763;48.370;10.874;2023-06-22T14:56:47;36.80;91.10
9450;DHT22;4763;48.370;10.874;2023-06-22T14:59:14;36.40;92.20
9450;DHT22;4763;48.370;10.874;2023-06-22T15:01:41;36.70;92.10
9450;DHT22;4763;48.370;10.874;2023-06-22T15:04:07;36.30;92.80
9450;DHT22;4763;48.370;10.874;2023-06-22T15:06:34;36.30;93.20
9450;DHT22;4763;48.370;10.874;2023-06-22T15:09:01;36.80;92.70
9450;DHT22;4763;48.370;10.874;2023-06-22T15:11:28;37.00;93.30
9450;DHT22;4763;48.370;10.874;2023-06-22T15:13:58;37.30;93.20
9450;DHT22;4763;48.370;10.874;2023-06-22T15:16:25;37.30;92.00
9450;DHT22;4763;48.370;10.874;2023-06-22T15:18:52;37.20;92.20
9450;DHT22;4763;48.370;10.874;2023-06-22T15:21:19;37.30;91.20
9450;DHT22;4763;48.370;10.874;2023-06-22T15:23:46;37.00;91.20
9450;DHT22;4763;48.370;10.874;2023-06-22T15:26:13;36.80;90.90
9450;DHT22;4763;48.370;10.874;2023-06-22T15:28:39;36.40;92.40
9450;DHT22;4763;48.370;10.874;2023-06-22T15:31:07;36.10;91.20
9450;DHT22;4763;48.370;10.874;2023-06-22T15:33:34;35.90;93.30
9450;DHT22;4763;48.370;10.874;2023-06-22T15:36:02;35.90;93.60
9450;DHT22;4763;48.370;10.874;2023-06-22T15:38:31;35.90;92.90
9450;DHT22;4763;48.370;10.874;2023-06-22T15:40:58;35.90;92.10
9450;DHT22;4763;48.370;10.874;2023-06-22T15:43:25;36.00;92.80
9450;DHT22;4763;48.370;10.874;2023-06-22T15:45:51;36.00;92.50
9450;DHT22;4763;48.370;10.874;2023-06-22T15:48:21;36.00;92.40
9450;DHT22;4763;48.370;10.874;2023-06-22T15:50:47;35.80;92.20
9450;DHT22;4763;48.370;10.874;2023-06-22T15:53:14;35.80;92.80
9450;DHT22;4763;48.370;10.874;2023-06-22T15:55:41;35.40;93.50
9450;DHT22;4763;48.370;10.874;2023-06-22T15:58:08;35.40;93.60
9450;DHT22;4763;48.370;10.874;2023-06-22T16:00:35;35.20;93.50
9450;DHT22;4763;48.370;10.874;2023-06-22T16:03:02;35.00;93.50
9450;DHT22;4763;48.370;10.874;2023-06-22T16:05:30;34.90;94.20
9450;DHT22;4763;48.370;10.874;2023-06-22T16:07:57;34.70;95.90
9450;DHT22;4763;48.370;10.874;2023-06-22T16:10:23;34.40;97.80
9450;DHT22;4763;48.370;10.874;2023-06-22T16:12:50;34.10;98.60
9450;DHT22;4763;48.370;10.874;2023-06-22T16:15:17;33.80;99.20
9450;DHT22;4763;48.370;10.874;2023-06-22T16:17:43;33.80;99.40
9450;DHT22;4763;48.370;10.874;2023-06-22T16:20:11;33.50;99.60
9450;DHT22;4763;48.370;10.874;2023-06-22T16:22:39;33.30;99.90
9450;DHT22;4763;48.370;10.874;2023-06-22T16:25:06;33.20;99.90
9450;DHT22;4763;48.370;10.874;2023-06-22T16:27:33;33.00;99.90
9450;DHT22;4763;48.370;10.874;2023-06-22T16:30:00;32.70;99.90
9450;DHT22;4763;48.370;10.874;2023-06-22T16:32:27;32.50;99.90
9450;DHT22;4763;48.370;10.874;2023-06-22T16:34:53;32.40;99.90
9450;DHT22;4763;48.370;10.874;2023-06-22T16:37:20;32.30;99.90
9450;DHT22;4763;48.370;10.874;2023-06-22T16:39:48;32.10;99.90
9450;DHT22;4763;48.370;10.874;2023-06-22T16:42:15;32.00;99.90
9450;DHT22;4763;48.370;10.874;2023-06-22T16:44:43;32.00;99.90
9450;DHT22;4763;48.370;10.874;2023-06-22T16:47:09;31.80;99.90
9450;DHT22;4763;48.370;10.874;2023-06-22T16:49:37;31.70;99.90
9450;DHT22;4763;48.370;10.874;2023-06-22T16:52:04;31.50;99.90
9450;DHT22;4763;48.370;10.874;2023-06-22T16:54:32;31.50;99.90
9450;DHT22;4763;48.370;10.874;2023-06-22T16:57:01;31.40;99.90
9450;DHT22;4763;48.370;10.874;2023-06-22T16:59:28;31.20;99.90
9450;DHT22;4763;48.370;10.874;2023-06-22T17:01:56;31.10;99.90
9450;DHT22;4763;48.370;10.874;2023-06-22T17:04:24;30.90;99.90
9450;DHT22;4763;48.370;10.874;2023-06-22T17:06:54;30.90;99.90
9450;DHT22;4763;48.370;10.874;2023-06-22T17:09:23;31.00;99.90
9450;DHT22;4763;48.370;10.874;2023-06-22T17:11:52;31.10;99.90
9450;DHT22;4763;48.370;10.874;2023-06-22T17:14:20;31.20;99.90
9450;DHT22;4763;48.370;10.874;2023-06-22T17:16:50;31.10;99.90
9450;DHT22;4763;48.370;10.874;2023-06-22T17:19:19;31.00;99.90
9450;DHT22;4763;48.370;10.874;2023-06-22T17:21:46;31.00;99.90
9450;DHT22;4763;48.370;10.874;2023-06-22T17:24:15;30.90;99.90
9450;DHT22;4763;48.370;10.874;2023-06-22T17:26:45;30.90;99.90
9450;DHT22;4763;48.370;10.874;2023-06-22T17:29:13;30.90;99.90
9450;DHT22;4763;48.370;10.874;2023-06-22T17:31:42;30.80;99.90
9450;DHT22;4763;48.370;10.874;2023-06-22T17:34:10;30.60;99.90
9450;DHT22;4763;48.370;10.874;2023-06-22T17:36:44;30.40;98.20
9450;DHT22;4763;48.370;10.874;2023-06-22T17:39:12;30.30;97.90
9450;DHT22;4763;48.370;10.874;2023-06-22T17:41:39;30.20;98.20
9450;DHT22;4763;48.370;10.874;2023-06-22T17:44:06;30.10;99.90
9450;DHT22;4763;48.370;10.874;2023-06-22T17:46:34;30.00;99.90
9450;DHT22;4763;48.370;10.874;2023-06-22T17:49:06;29.80;98.80
9450;DHT22;4763;48.370;10.874;2023-06-22T17:51:33;29.70;99.10
9450;DHT22;4763;48.370;10.874;2023-06-22T17:54:01;29.60;98.50
9450;DHT22;4763;48.370;10.874;2023-06-22T17:56:28;29.50;98.40
9450;DHT22;4763;48.370;10.874;2023-06-22T17:58:55;29.40;99.50
9450;DHT22;4763;48.370;10.874;2023-06-22T18:01:31;29.30;99.00
9450;DHT22;4763;48.370;10.874;2023-06-22T18:04:02;29.30;98.90
9450;DHT22;4763;48.370;10.874;2023-06-22T18:06:33;29.30;98.90
9450;DHT22;4763;48.370;10.874;2023-06-22T18:09:03;29.20;99.00
9450;DHT22;4763;48.370;10.874;2023-06-22T18:11:34;29.20;99.90
9450;DHT22;4763;48.370;10.874;2023-06-22T18:14:03;29.20;99.90
9450;DHT22;4763;48.370;10.874;2023-06-22T18:16:32;29.10;99.90
9450;DHT22;4763;48.370;10.874;2023-06-22T18:19:02;29.00;99.90
9450;DHT22;4763;48.370;10.874;2023-06-22T18:21:30;29.00;99.90
9450;DHT22;4763;48.370;10.874;2023-06-22T18:23:56;28.80;99.90
9450;DHT22;4763;48.370;10.874;2023-06-22T18:26:24;28.70;99.90
9450;DHT22;4763;48.370;10.874;2023-06-22T18:28:56;28.70;99.90
9450;DHT22;4763;48.370;10.874;2023-06-22T18:31:44;28.60;99.90
9450;DHT22;4763;48.370;10.874;2023-06-22T18:34:22;28.50;99.90
9450;DHT22;4763;48.370;10.874;2023-06-22T18:38:20;28.50;99.90
9450;DHT22;4763;48.370;10.874;2023-06-22T18:53:38;28.20;99.90
9450;DHT22;4763;48.370;10.874;2023-06-22T18:56:15;28.10;99.90
9450;DHT22;4763;48.370;10.874;2023-06-22T18:58:50;28.10;99.90
9450;DHT22;4763;48.370;10.874;2023-06-22T19:02:00;28.00;99.90
9450;DHT22;4763;48.370;10.874;2023-06-22T19:05:05;28.00;99.90
9450;DHT22;4763;48.370;10.874;2023-06-22T19:11:47;27.80;99.90
9450;DHT22;4763;48.370;10.874;2023-06-22T19:14:34;27.70;99.90
9450;DHT22;4763;48.370;10.874;2023-06-22T19:20:35;27.60;99.90
9450;DHT22;4763;48.370;10.874;2023-06-22T19:23:03;27.40;99.90
9450;DHT22;4763;48.370;10.874;2023-06-22T19:25:54;27.20;99.90
